createdAt,value
2019-03-23T00:01:24.642Z,23.80
2019-03-23T00:03:53.159Z,27.90
2019-03-23T00:06:30.450Z,23.45
2019-03-23T00:08:51.758Z,20.62
2019-03-23T00:11:20.275Z,29.23
2019-03-23T00:13:49.166Z,25.50
2019-03-23T00:16:17.615Z,21.05
2019-03-23T00:18:46.065Z,26.82
2019-03-23T00:21:14.606Z,30.45
2019-03-23T00:23:43.131Z,22.58
2019-03-23T00:26:13.348Z,27.30
2019-03-23T00:28:41.978Z,26.65
2019-03-23T00:31:10.447Z,19.50
2019-03-23T00:33:38.927Z,24.57
2019-03-23T00:36:07.358Z,28.55
2019-03-23T00:38:35.807Z,23.92
2019-03-23T00:41:04.250Z,24.02
2019-03-23T00:43:32.685Z,22.20
2019-03-23T00:46:01.118Z,23.15
2019-03-23T00:48:29.574Z,20.72
2019-03-23T00:50:58.086Z,22.90
2019-03-23T00:53:26.535Z,23.47
2019-03-23T00:55:54.963Z,21.75
2019-03-23T00:58:23.413Z,29.72
2019-03-23T01:00:51.859Z,25.68
2019-03-23T01:03:20.271Z,23.80
2019-03-23T01:05:48.787Z,32.50
2019-03-23T01:08:17.770Z,24.40
2019-03-23T01:10:46.255Z,29.63
2019-03-23T01:13:14.706Z,22.80
2019-03-23T01:15:43.140Z,21.05
2019-03-23T01:18:11.619Z,29.32
2019-03-23T01:20:49.392Z,24.63
2019-03-23T01:23:10.278Z,22.55
2019-03-23T01:25:38.729Z,22.73
2019-03-23T01:28:07.178Z,28.00
2019-03-23T01:30:35.670Z,27.07
2019-03-23T01:33:04.105Z,23.30
2019-03-23T01:35:32.553Z,24.57
2019-03-23T01:38:00.982Z,22.62
2019-03-23T01:40:29.426Z,22.55
2019-03-23T01:42:57.938Z,28.80
2019-03-23T01:45:26.406Z,27.62
2019-03-23T01:47:54.898Z,21.52
2019-03-23T01:50:23.342Z,28.83
2019-03-23T01:52:51.762Z,24.40
2019-03-23T01:55:20.203Z,20.68
2019-03-23T01:57:48.622Z,26.23
2019-03-23T02:00:17.315Z,29.18
2019-03-23T02:02:47.527Z,33.45
2019-03-23T02:05:16.315Z,31.62
2019-03-23T02:07:44.750Z,25.25
2019-03-23T02:10:13.356Z,24.32
2019-03-23T02:12:41.804Z,25.23
2019-03-23T02:15:12.290Z,26.77
2019-03-23T02:17:40.806Z,26.37
2019-03-23T02:20:11.266Z,25.30
2019-03-23T02:22:39.783Z,37.95
2019-03-23T02:25:08.748Z,32.35
2019-03-23T02:27:37.274Z,24.30
2019-03-23T02:30:13.463Z,28.00
2019-03-23T02:32:41.988Z,21.57
2019-03-23T02:35:11.848Z,26.62
2019-03-23T02:37:40.387Z,31.57
2019-03-23T02:40:12.206Z,29.98
2019-03-23T02:42:40.648Z,25.17
2019-03-23T02:45:12.968Z,29.92
2019-03-23T02:47:41.401Z,35.08
2019-03-23T02:50:11.072Z,25.40
2019-03-23T02:52:39.523Z,32.35
2019-03-23T02:55:09.593Z,35.55
2019-03-23T02:57:38.151Z,27.48
2019-03-23T03:00:12.516Z,28.75
2019-03-23T03:02:40.964Z,32.53
2019-03-23T03:05:10.424Z,30.48
2019-03-23T03:07:42.456Z,33.20
2019-03-23T03:10:14.049Z,29.05
2019-03-23T03:12:42.562Z,29.92
2019-03-23T03:15:11.425Z,33.10
2019-03-23T03:17:39.936Z,34.27
2019-03-23T03:20:09.828Z,35.50
2019-03-23T03:22:38.273Z,30.20
2019-03-23T03:25:08.129Z,30.15
2019-03-23T03:27:36.569Z,28.25
2019-03-23T03:30:08.240Z,28.45
2019-03-23T03:32:37.762Z,31.10
2019-03-23T03:35:06.706Z,28.52
2019-03-23T03:37:35.312Z,29.75
2019-03-23T03:40:05.803Z,30.05
2019-03-23T03:42:34.242Z,25.85
2019-03-23T03:45:02.794Z,30.82
2019-03-23T03:47:31.238Z,31.42
2019-03-23T03:49:59.685Z,32.88
2019-03-23T03:52:28.250Z,31.40
2019-03-23T03:54:56.746Z,32.90
2019-03-23T03:57:25.197Z,31.87
2019-03-23T03:59:53.692Z,34.30
2019-03-23T04:02:22.114Z,28.10
2019-03-23T04:04:50.678Z,33.23
2019-03-23T04:07:19.109Z,28.57
2019-03-23T04:09:47.555Z,32.83
2019-03-23T04:12:16.005Z,31.10
2019-03-23T04:14:44.463Z,31.02
2019-03-23T04:17:12.958Z,33.20
2019-03-23T04:19:41.387Z,27.87
2019-03-23T04:22:09.887Z,34.70
2019-03-23T04:24:38.369Z,32.75
2019-03-23T04:27:06.813Z,30.25
2019-03-23T04:29:35.242Z,32.63
2019-03-23T04:32:03.750Z,34.03
2019-03-23T04:34:32.180Z,31.82
2019-03-23T04:37:00.686Z,30.45
2019-03-23T04:39:29.111Z,31.52
2019-03-23T04:41:57.566Z,29.23
2019-03-23T04:44:26.059Z,31.00
2019-03-23T04:46:54.567Z,36.48
2019-03-23T04:49:23.015Z,31.45
2019-03-23T04:51:51.458Z,31.70
2019-03-23T04:54:19.879Z,34.75
2019-03-23T04:56:48.339Z,31.17
2019-03-23T04:59:16.757Z,31.97
2019-03-23T05:01:45.213Z,28.80
2019-03-23T05:04:13.650Z,26.20
2019-03-23T05:06:42.642Z,34.23
2019-03-23T05:09:11.204Z,33.65
2019-03-23T05:11:39.650Z,33.73
2019-03-23T05:14:08.087Z,37.73
2019-03-23T05:16:36.822Z,29.77
2019-03-23T05:19:05.261Z,32.98
2019-03-23T05:21:33.720Z,35.80
2019-03-23T05:24:02.183Z,40.45
2019-03-23T05:26:30.690Z,39.83
2019-03-23T05:28:59.107Z,36.95
2019-03-23T05:31:27.539Z,33.80
2019-03-23T05:33:55.987Z,34.98
2019-03-23T05:36:24.417Z,39.00
2019-03-23T05:38:52.859Z,36.53
2019-03-23T05:41:21.281Z,44.38
2019-03-23T05:43:49.722Z,29.35
2019-03-23T05:46:18.223Z,31.30
2019-03-23T05:48:46.679Z,33.92
2019-03-23T05:51:15.094Z,37.45
2019-03-23T05:53:43.547Z,36.65
2019-03-23T05:56:12.011Z,36.28
2019-03-23T05:58:40.465Z,38.90
2019-03-23T06:01:08.909Z,47.30
2019-03-23T06:03:37.341Z,35.45
2019-03-23T06:06:06.852Z,38.65
2019-03-23T06:08:35.307Z,40.63
2019-03-23T06:11:03.779Z,38.67
2019-03-23T06:13:32.244Z,33.88
2019-03-23T06:16:00.681Z,41.92
2019-03-23T06:18:29.190Z,43.95
2019-03-23T06:20:58.633Z,43.90
2019-03-23T06:23:27.078Z,43.75
2019-03-23T06:25:55.598Z,37.03
2019-03-23T06:28:24.034Z,37.75
2019-03-23T06:30:52.510Z,34.67
2019-03-23T06:33:20.940Z,43.08
2019-03-23T06:35:49.385Z,37.00
2019-03-23T06:38:17.807Z,43.10
2019-03-23T06:40:46.270Z,48.00
2019-03-23T06:43:14.675Z,41.15
2019-03-23T06:45:43.133Z,47.50
2019-03-23T06:48:11.563Z,45.63
2019-03-23T06:50:41.537Z,41.60
2019-03-23T06:53:09.970Z,33.50
2019-03-23T06:55:38.416Z,47.60
2019-03-23T06:58:06.856Z,36.77
2019-03-23T07:00:35.302Z,48.10
2019-03-23T07:03:03.740Z,44.98
2019-03-23T07:05:32.254Z,46.83
2019-03-23T07:08:00.686Z,36.38
2019-03-23T07:10:29.165Z,42.38
2019-03-23T07:12:57.622Z,47.05
2019-03-23T07:15:26.044Z,41.80
2019-03-23T07:17:54.491Z,33.35
2019-03-23T07:20:22.908Z,35.15
2019-03-23T07:22:51.345Z,38.40
2019-03-23T07:25:19.854Z,37.78
2019-03-23T07:27:48.306Z,33.42
2019-03-23T07:30:17.775Z,34.15
2019-03-23T07:32:46.395Z,32.85
2019-03-23T07:35:15.069Z,33.10
2019-03-23T07:37:43.586Z,28.27
2019-03-23T07:40:12.854Z,33.73
2019-03-23T07:42:41.417Z,31.12
2019-03-23T07:45:11.797Z,32.28
2019-03-23T07:47:40.231Z,31.37
2019-03-23T07:50:11.097Z,39.42
2019-03-23T07:52:39.702Z,35.20
2019-03-23T07:55:12.855Z,34.03
2019-03-23T07:57:41.641Z,29.05
2019-03-23T08:00:18.659Z,33.10
2019-03-23T08:02:47.338Z,39.88
2019-03-23T08:05:15.834Z,30.20
2019-03-23T08:07:44.420Z,36.30
2019-03-23T08:10:16.007Z,30.95
2019-03-23T08:12:44.462Z,29.37
2019-03-23T08:15:13.127Z,34.25
2019-03-23T08:17:41.573Z,31.55
2019-03-23T08:20:10.066Z,28.42
2019-03-23T08:22:38.503Z,30.70
2019-03-23T08:25:07.186Z,31.62
2019-03-23T08:27:35.634Z,33.05
2019-03-23T08:30:06.010Z,32.05
2019-03-23T08:32:34.458Z,32.03
2019-03-23T08:35:02.984Z,31.07
2019-03-23T08:37:31.442Z,31.07
2019-03-23T08:39:59.998Z,30.00
2019-03-23T08:42:28.457Z,31.10
2019-03-23T08:44:56.967Z,31.47
2019-03-23T08:47:25.421Z,31.03
2019-03-23T08:49:53.889Z,32.20
2019-03-23T08:52:22.314Z,40.87
2019-03-23T08:54:50.798Z,32.07
2019-03-23T08:57:19.262Z,32.77
2019-03-23T08:59:47.713Z,38.53
2019-03-23T09:02:16.144Z,35.70
2019-03-23T09:04:44.601Z,38.40
2019-03-23T09:07:13.031Z,41.70
2019-03-23T09:09:41.489Z,41.33
2019-03-23T09:12:09.916Z,49.27
2019-03-23T09:14:38.341Z,43.30
2019-03-23T09:17:06.852Z,39.00
2019-03-23T09:19:35.359Z,46.60
2019-03-23T09:22:04.565Z,44.47
2019-03-23T09:24:33.018Z,44.40
2019-03-23T09:27:01.462Z,47.70
2019-03-23T09:29:29.901Z,41.37
2019-03-23T09:31:58.375Z,44.70
2019-03-23T09:34:26.821Z,48.53
2019-03-23T09:36:55.359Z,42.50
2019-03-23T09:39:23.884Z,47.57
2019-03-23T09:41:52.393Z,43.90
2019-03-23T09:44:20.890Z,39.90
2019-03-23T09:46:49.336Z,39.83
2019-03-23T09:49:17.782Z,44.13
2019-03-23T09:51:46.243Z,37.90
2019-03-23T09:54:14.675Z,39.63
2019-03-23T09:56:43.623Z,40.67
2019-03-23T09:59:12.046Z,42.10
2019-03-23T10:01:40.501Z,43.60
2019-03-23T10:04:08.941Z,39.00
2019-03-23T10:06:37.383Z,42.43
2019-03-23T10:09:06.968Z,37.83
2019-03-23T10:11:35.494Z,37.87
2019-03-23T10:14:04.080Z,47.10
2019-03-23T10:16:32.490Z,39.93
2019-03-23T10:19:00.932Z,41.83
2019-03-23T10:21:29.358Z,43.53
2019-03-23T10:23:57.807Z,43.30
2019-03-23T10:26:26.248Z,42.47
2019-03-23T10:28:54.694Z,36.57
2019-03-23T10:31:23.112Z,37.53
2019-03-23T10:33:51.561Z,43.13
2019-03-23T10:36:20.042Z,43.37
2019-03-23T10:38:48.522Z,38.23
2019-03-23T10:41:16.965Z,52.40
2019-03-23T10:43:45.651Z,43.53
2019-03-23T10:46:14.247Z,47.07
2019-03-23T10:48:42.692Z,39.53
2019-03-23T10:51:11.167Z,46.90
2019-03-23T10:53:39.671Z,43.73
2019-03-23T10:56:08.149Z,43.03
2019-03-23T10:58:36.591Z,44.97
2019-03-23T11:01:05.195Z,46.10
2019-03-23T11:03:33.618Z,41.10
2019-03-23T11:06:02.161Z,42.20
2019-03-23T11:08:30.591Z,41.27
2019-03-23T11:10:59.047Z,37.63
2019-03-23T11:13:27.462Z,42.00
2019-03-23T11:15:55.918Z,43.87
2019-03-23T11:18:24.350Z,41.20
2019-03-23T11:20:52.795Z,42.67
2019-03-23T11:23:21.237Z,42.13
2019-03-23T11:25:49.679Z,44.53
2019-03-23T11:28:18.116Z,40.80
2019-03-23T11:30:46.558Z,38.93
2019-03-23T11:33:14.990Z,35.10
2019-03-23T11:35:43.494Z,50.80
2019-03-23T11:38:11.926Z,39.30
2019-03-23T11:40:40.354Z,45.73
2019-03-23T11:43:08.811Z,40.97
2019-03-23T11:45:37.268Z,38.73
2019-03-23T11:48:05.686Z,44.40
2019-03-23T11:50:34.148Z,42.33
2019-03-23T11:53:02.578Z,40.77
2019-03-23T11:55:31.038Z,38.10
2019-03-23T11:57:59.482Z,48.00
2019-03-23T12:00:28.163Z,41.73
2019-03-23T12:02:56.607Z,45.00
2019-03-23T12:05:25.048Z,47.90
2019-03-23T12:07:53.476Z,43.93
2019-03-23T12:10:21.907Z,41.40
2019-03-23T12:12:50.377Z,41.30
2019-03-23T12:15:18.841Z,42.47
2019-03-23T12:17:47.303Z,43.07
2019-03-23T12:20:15.819Z,41.60
2019-03-23T12:22:44.279Z,47.20
2019-03-23T12:25:12.702Z,44.50
2019-03-23T12:27:41.240Z,45.90
2019-03-23T12:30:13.046Z,48.37
2019-03-23T12:32:41.494Z,42.43
2019-03-23T12:35:10.174Z,42.07
2019-03-23T12:37:38.713Z,41.33
2019-03-23T12:40:08.494Z,39.33
2019-03-23T12:42:37.067Z,38.10
2019-03-23T12:45:06.656Z,39.30
2019-03-23T12:47:35.163Z,40.97
2019-03-23T12:50:05.655Z,43.83
2019-03-23T12:52:34.142Z,42.43
2019-03-23T12:55:02.595Z,38.20
2019-03-23T12:57:31.042Z,41.30
2019-03-23T12:59:59.490Z,45.30
2019-03-23T13:02:27.936Z,40.27
2019-03-23T13:04:56.397Z,40.43
2019-03-23T13:07:24.891Z,38.77
2019-03-23T13:09:53.353Z,40.33
2019-03-23T13:12:21.798Z,47.90
2019-03-23T13:14:50.270Z,37.87
2019-03-23T13:17:18.687Z,38.87
2019-03-23T13:19:47.164Z,40.23
2019-03-23T13:22:15.662Z,40.33
2019-03-23T13:24:44.131Z,43.53
2019-03-23T13:27:12.635Z,42.87
2019-03-23T13:29:41.090Z,42.10
2019-03-23T13:32:09.510Z,46.93
2019-03-23T13:34:37.972Z,38.97
2019-03-23T13:37:06.411Z,39.20
2019-03-23T13:39:34.873Z,37.83
2019-03-23T13:42:03.312Z,41.77
2019-03-23T13:44:31.738Z,41.37
2019-03-23T13:47:00.208Z,37.50
2019-03-23T13:49:28.657Z,41.50
2019-03-23T13:51:57.098Z,37.40
2019-03-23T13:54:25.694Z,37.90
2019-03-23T13:56:54.143Z,37.63
2019-03-23T13:59:24.251Z,39.77
2019-03-23T14:01:52.719Z,38.40
2019-03-23T14:04:22.692Z,45.53
2019-03-23T14:06:51.143Z,43.53
2019-03-23T14:09:19.576Z,38.53
2019-03-23T14:11:54.905Z,38.03
2019-03-23T14:14:18.187Z,38.00
2019-03-23T14:16:46.647Z,41.47
2019-03-23T14:19:15.066Z,38.80
2019-03-23T14:21:43.522Z,38.77
2019-03-23T14:24:11.950Z,41.03
2019-03-23T14:26:40.422Z,44.17
2019-03-23T14:29:08.835Z,43.20
2019-03-23T14:31:37.298Z,38.83
2019-03-23T14:34:05.761Z,41.57
2019-03-23T14:36:34.277Z,40.47
2019-03-23T14:39:04.570Z,43.87
2019-03-23T14:41:33.016Z,38.10
2019-03-23T14:44:01.467Z,41.93
2019-03-23T14:46:30.015Z,45.23
2019-03-23T14:49:01.575Z,40.00
2019-03-23T14:51:28.620Z,37.07
2019-03-23T14:53:57.148Z,36.30
2019-03-23T14:56:25.574Z,36.03
2019-03-23T14:58:54.202Z,41.10
2019-03-23T15:01:22.631Z,41.10
2019-03-23T15:03:51.102Z,44.40
2019-03-23T15:06:19.540Z,39.03
2019-03-23T15:08:48.093Z,42.57
2019-03-23T15:11:16.515Z,41.23
2019-03-23T15:13:44.958Z,43.73
2019-03-23T15:16:13.478Z,40.43
2019-03-23T15:18:41.930Z,43.00
2019-03-23T15:21:10.438Z,43.77
2019-03-23T15:23:38.858Z,40.77
2019-03-23T15:26:07.371Z,41.00
2019-03-23T15:28:35.807Z,40.63
2019-03-23T15:31:04.337Z,44.07
2019-03-23T15:33:32.754Z,41.73
2019-03-23T15:36:01.221Z,41.70
2019-03-23T15:38:30.439Z,38.93
2019-03-23T15:40:58.895Z,40.40
2019-03-23T15:43:27.319Z,35.77
2019-03-23T15:45:55.768Z,40.63
2019-03-23T15:48:24.220Z,39.53
2019-03-23T15:50:52.678Z,37.40
2019-03-23T15:53:21.138Z,41.13
2019-03-23T15:55:49.642Z,44.23
2019-03-23T15:58:18.066Z,40.63
2019-03-23T16:00:46.561Z,42.60
2019-03-23T16:03:14.992Z,41.33
2019-03-23T16:05:43.447Z,42.00
2019-03-23T16:08:11.894Z,45.87
2019-03-23T16:10:40.352Z,41.70
2019-03-23T16:13:08.781Z,44.67
2019-03-23T16:15:37.230Z,45.30
2019-03-23T16:18:05.657Z,51.33
2019-03-23T16:20:34.102Z,47.23
2019-03-23T16:23:02.564Z,43.90
2019-03-23T16:25:30.997Z,44.00
2019-03-23T16:27:59.438Z,51.80
2019-03-23T16:30:31.927Z,46.80
2019-03-23T16:33:00.378Z,44.30
2019-03-23T16:35:28.797Z,43.97
2019-03-23T16:37:57.249Z,45.27
2019-03-23T16:40:25.712Z,38.90
2019-03-23T16:42:54.158Z,40.77
2019-03-23T16:45:22.585Z,72.50
2019-03-23T16:47:51.070Z,65.63
2019-03-23T16:50:19.495Z,50.73
2019-03-23T16:52:47.955Z,46.43
2019-03-23T16:55:16.382Z,53.70
2019-03-23T16:57:44.903Z,36.50
2019-03-23T17:00:15.079Z,35.57
2019-03-23T17:02:45.151Z,31.17
2019-03-23T17:05:14.117Z,27.93
2019-03-23T17:07:42.589Z,31.90
2019-03-23T17:10:11.365Z,29.73
2019-03-23T17:12:39.984Z,37.60
2019-03-23T17:15:08.780Z,26.97
2019-03-23T17:17:37.302Z,28.47
2019-03-23T17:20:07.545Z,42.00
2019-03-23T17:22:36.002Z,29.97
2019-03-23T17:25:06.591Z,31.97
2019-03-23T17:27:35.037Z,31.00
2019-03-23T17:30:04.822Z,37.20
2019-03-23T17:32:33.263Z,30.43
2019-03-23T17:35:01.712Z,40.80
2019-03-23T17:37:30.133Z,30.70
2019-03-23T17:39:58.597Z,34.60
2019-03-23T17:42:27.022Z,34.93
2019-03-23T17:44:55.476Z,40.00
2019-03-23T17:47:25.468Z,44.90
2019-03-23T17:49:53.926Z,47.03
2019-03-23T17:52:22.414Z,44.97
2019-03-23T17:54:50.866Z,40.30
2019-03-23T17:57:19.294Z,38.07
2019-03-23T17:59:47.749Z,40.03
2019-03-23T18:02:16.254Z,38.30
2019-03-23T18:04:44.722Z,47.27
2019-03-23T18:07:13.193Z,39.57
2019-03-23T18:09:41.731Z,44.53
2019-03-23T18:12:10.174Z,36.43
2019-03-23T18:14:38.684Z,47.03
2019-03-23T18:17:07.238Z,46.13
2019-03-23T18:19:35.775Z,48.97
2019-03-23T18:22:04.356Z,40.93
2019-03-23T18:24:32.792Z,47.67
2019-03-23T18:27:01.231Z,38.50
2019-03-23T18:29:29.654Z,43.33
2019-03-23T18:31:58.219Z,38.53
2019-03-23T18:34:26.642Z,35.40
2019-03-23T18:36:56.038Z,38.07
2019-03-23T18:39:24.487Z,34.20
2019-03-23T18:41:52.928Z,40.50
2019-03-23T18:44:21.411Z,38.17
2019-03-23T18:46:49.874Z,33.50
2019-03-23T18:49:18.318Z,33.50
2019-03-23T18:51:46.830Z,32.57
2019-03-23T18:54:15.276Z,31.13
2019-03-23T18:56:43.737Z,36.07
2019-03-23T18:59:12.163Z,31.67
2019-03-23T19:01:40.623Z,31.03
2019-03-23T19:04:09.058Z,34.50
2019-03-23T19:06:37.594Z,37.60
2019-03-23T19:09:07.478Z,34.03
2019-03-23T19:11:36.092Z,38.75
2019-03-23T19:14:04.692Z,37.90
2019-03-23T19:16:33.120Z,33.60
2019-03-23T19:19:01.590Z,33.10
2019-03-23T19:21:30.005Z,39.05
2019-03-23T19:23:58.539Z,33.00
2019-03-23T19:26:27.294Z,34.35
2019-03-23T19:28:55.818Z,37.08
2019-03-23T19:31:24.275Z,41.30
2019-03-23T19:33:52.796Z,39.23
2019-03-23T19:36:21.247Z,37.83
2019-03-23T19:38:49.692Z,32.38
2019-03-23T19:41:18.127Z,37.23
2019-03-23T19:43:49.710Z,35.63
2019-03-23T19:46:16.735Z,35.30
2019-03-23T19:48:45.188Z,35.45
2019-03-23T19:51:13.640Z,37.63
2019-03-23T19:53:42.122Z,36.85
2019-03-23T19:56:10.552Z,26.55
2019-03-23T19:58:38.978Z,36.85
2019-03-23T20:01:07.430Z,36.08
2019-03-23T20:03:35.868Z,28.27
2019-03-23T20:06:04.388Z,29.52
2019-03-23T20:08:32.838Z,28.10
2019-03-23T20:11:01.273Z,30.30
2019-03-23T20:13:29.715Z,26.80
2019-03-23T20:15:58.142Z,31.48
2019-03-23T20:18:26.639Z,29.70
2019-03-23T20:20:55.092Z,35.23
2019-03-23T20:23:23.527Z,32.93
2019-03-23T20:25:51.987Z,29.20
2019-03-23T20:28:20.432Z,33.92
2019-03-23T20:30:48.868Z,33.55
2019-03-23T20:33:19.709Z,33.78
2019-03-23T20:35:47.536Z,35.08
2019-03-23T20:38:15.951Z,33.45
2019-03-23T20:40:44.422Z,30.52
2019-03-23T20:43:12.849Z,30.65
2019-03-23T20:45:41.381Z,35.98
2019-03-23T20:48:11.422Z,31.42
2019-03-23T20:50:40.034Z,39.48
2019-03-23T20:53:08.736Z,33.13
2019-03-23T20:55:37.202Z,32.10
2019-03-23T20:58:05.625Z,32.70
2019-03-23T21:00:34.077Z,36.70
2019-03-23T21:03:02.623Z,27.58
2019-03-23T21:05:34.218Z,35.80
2019-03-23T21:08:01.223Z,33.45
2019-03-23T21:10:29.648Z,32.85
2019-03-23T21:12:58.114Z,35.03
2019-03-23T21:15:26.526Z,34.30
2019-03-23T21:17:54.983Z,35.13
2019-03-23T21:20:23.497Z,33.40
2019-03-23T21:22:51.998Z,39.45
2019-03-23T21:25:20.524Z,36.77
2019-03-23T21:27:49.063Z,32.65
2019-03-23T21:30:19.129Z,34.88
2019-03-23T21:32:47.568Z,33.83
2019-03-23T21:35:16.127Z,38.88
2019-03-23T21:37:44.722Z,30.45
2019-03-23T21:40:13.338Z,36.38
2019-03-23T21:42:41.795Z,38.23
2019-03-23T21:45:11.059Z,35.03
2019-03-23T21:47:39.578Z,36.08
2019-03-23T21:50:08.390Z,35.45
2019-03-23T21:52:36.919Z,34.33
2019-03-23T21:55:07.088Z,40.20
2019-03-23T21:57:36.082Z,38.08
2019-03-23T22:00:06.852Z,31.93
2019-03-23T22:02:35.299Z,31.70
2019-03-23T22:05:05.066Z,36.30
2019-03-23T22:07:33.524Z,38.75
2019-03-23T22:10:01.961Z,37.42
2019-03-23T22:12:30.485Z,39.42
2019-03-23T22:14:58.968Z,37.25
2019-03-23T22:17:27.379Z,46.85
2019-03-23T22:19:55.824Z,38.85
2019-03-23T22:22:24.268Z,48.05
2019-03-23T22:24:52.715Z,36.70
2019-03-23T22:27:21.167Z,41.92
2019-03-23T22:29:49.615Z,38.80
2019-03-23T22:32:18.048Z,43.65
2019-03-23T22:34:46.553Z,40.58
2019-03-23T22:37:15.052Z,42.60
2019-03-23T22:39:43.510Z,37.80
2019-03-23T22:42:11.934Z,39.08
2019-03-23T22:44:40.383Z,35.10
2019-03-23T22:47:08.906Z,39.13
2019-03-23T22:49:37.379Z,41.60
2019-03-23T22:52:05.831Z,39.78
2019-03-23T22:54:34.249Z,38.05
2019-03-23T22:57:02.702Z,38.98
2019-03-23T22:59:31.239Z,47.75
2019-03-23T23:01:59.839Z,43.00
2019-03-23T23:04:28.327Z,45.55
2019-03-23T23:06:56.744Z,37.83
2019-03-23T23:09:25.198Z,42.38
2019-03-23T23:11:53.631Z,39.18
2019-03-23T23:14:22.073Z,36.65
2019-03-23T23:16:50.518Z,38.45
2019-03-23T23:19:18.940Z,38.63
2019-03-23T23:21:47.398Z,41.18
2019-03-23T23:24:15.883Z,38.75
2019-03-23T23:26:44.343Z,38.85
2019-03-23T23:29:12.779Z,41.63
2019-03-23T23:31:41.291Z,47.98
2019-03-23T23:34:09.724Z,44.70
2019-03-23T23:36:38.176Z,45.60
2019-03-23T23:39:07.343Z,37.25
2019-03-23T23:41:35.794Z,43.10
2019-03-23T23:44:04.666Z,42.23
2019-03-23T23:46:33.110Z,46.88
2019-03-23T23:49:01.538Z,41.00
2019-03-23T23:51:29.988Z,43.13
2019-03-23T23:53:58.399Z,47.50
2019-03-23T23:56:26.855Z,50.23
2019-03-23T23:58:55.266Z,39.45
